createdAt,value
2022-10-22T00:01:03.364Z,0.68
2022-10-22T00:03:30.104Z,0.45
2022-10-22T00:06:03.325Z,0.13
2022-10-22T00:08:30.671Z,0.63
2022-10-22T00:10:57.664Z,0.30
2022-10-22T00:13:24.408Z,0.60
2022-10-22T00:15:51.201Z,0.40
2022-10-22T00:18:17.839Z,0.20
2022-10-22T00:20:44.522Z,0.55
2022-10-22T00:23:11.236Z,0.50
2022-10-22T00:25:37.869Z,0.52
2022-10-22T00:28:04.707Z,0.52
2022-10-22T00:30:31.537Z,0.30
2022-10-22T00:32:58.197Z,0.28
2022-10-22T00:35:24.936Z,0.45
2022-10-22T00:37:51.574Z,0.47
2022-10-22T00:40:18.279Z,0.43
2022-10-22T00:42:45.055Z,0.88
2022-10-22T00:45:11.661Z,1.48
2022-10-22T00:47:57.873Z,0.32
2022-10-22T00:50:34.892Z,0.73
2022-10-22T00:53:02.832Z,0.20
2022-10-22T00:55:30.104Z,0.20
2022-10-22T00:57:57.578Z,0.40
2022-10-22T01:00:25.060Z,0.25
2022-10-22T01:02:52.870Z,0.57
2022-10-22T01:05:20.038Z,0.30
2022-10-22T01:07:52.072Z,0.63
2022-10-22T01:10:27.150Z,0.35
2022-10-22T01:13:16.753Z,0.40
2022-10-22T01:16:03.786Z,0.43
2022-10-22T01:18:56.141Z,0.40
2022-10-22T01:21:33.364Z,0.50
2022-10-22T01:24:21.399Z,0.45
2022-10-22T01:27:12.503Z,0.60
2022-10-22T01:29:47.022Z,0.50
2022-10-22T01:32:25.862Z,0.57
2022-10-22T01:34:55.570Z,0.50
2022-10-22T01:37:24.438Z,0.50
2022-10-22T01:39:52.026Z,0.40
2022-10-22T01:42:18.854Z,0.30
2022-10-22T01:44:46.506Z,0.40
2022-10-22T01:47:45.391Z,0.50
2022-10-22T01:50:34.292Z,0.73
2022-10-22T01:53:10.586Z,0.70
2022-10-22T01:55:46.066Z,0.30
2022-10-22T01:58:42.232Z,0.57
2022-10-22T02:01:34.277Z,0.40
2022-10-22T02:04:20.725Z,0.50
2022-10-22T02:06:48.430Z,0.40
2022-10-22T02:09:16.488Z,0.43
2022-10-22T02:11:45.016Z,0.50
2022-10-22T02:14:12.702Z,0.55
2022-10-22T02:16:45.105Z,0.60
2022-10-22T02:19:17.746Z,0.55
2022-10-22T02:21:44.766Z,0.50
2022-10-22T02:24:11.593Z,0.57
2022-10-22T02:26:55.165Z,0.70
2022-10-22T02:29:30.885Z,0.50
2022-10-22T02:31:58.893Z,0.70
2022-10-22T02:34:28.380Z,0.57
2022-10-22T02:36:55.759Z,0.60
2022-10-22T02:39:23.433Z,0.40
2022-10-22T02:41:50.139Z,0.75
2022-10-22T02:44:21.590Z,0.40
2022-10-22T02:46:48.846Z,0.45
2022-10-22T02:49:15.481Z,1.00
2022-10-22T02:51:42.216Z,0.60
2022-10-22T02:54:08.972Z,0.35
2022-10-22T02:56:36.583Z,0.73
2022-10-22T02:59:03.245Z,0.38
2022-10-22T03:01:29.926Z,0.40
2022-10-22T03:03:56.582Z,0.40
2022-10-22T03:06:23.261Z,0.52
2022-10-22T03:08:50.094Z,0.45
2022-10-22T03:11:16.889Z,0.52
2022-10-22T03:13:43.529Z,0.45
2022-10-22T03:16:10.287Z,0.40
2022-10-22T03:18:37.149Z,0.55
2022-10-22T03:21:38.291Z,0.30
2022-10-22T03:24:09.826Z,0.32
2022-10-22T03:26:37.207Z,0.40
2022-10-22T03:29:04.348Z,0.68
2022-10-22T03:31:31.088Z,0.30
2022-10-22T03:33:57.740Z,0.40
2022-10-22T03:36:24.468Z,0.20
2022-10-22T03:38:51.179Z,0.30
2022-10-22T03:41:17.982Z,0.40
2022-10-22T03:43:49.711Z,0.20
2022-10-22T03:46:16.372Z,0.25
2022-10-22T03:48:43.051Z,0.38
2022-10-22T03:51:10.341Z,0.30
2022-10-22T03:53:37.019Z,0.40
2022-10-22T03:56:07.747Z,0.50
2022-10-22T03:58:34.416Z,0.95
2022-10-22T04:01:09.054Z,0.35
2022-10-22T04:06:08.585Z,0.32
2022-10-22T04:08:35.797Z,0.22
2022-10-22T04:11:02.710Z,0.20
2022-10-22T04:13:29.362Z,0.20
2022-10-22T04:15:56.040Z,0.10
2022-10-22T04:18:23.683Z,0.10
2022-10-22T04:20:52.674Z,0.10
2022-10-22T04:23:19.359Z,0.22
2022-10-22T04:25:46.088Z,0.10
2022-10-22T04:28:12.761Z,0.10
2022-10-22T04:30:39.444Z,0.20
2022-10-22T04:33:06.075Z,0.22
2022-10-22T04:35:32.793Z,0.60
2022-10-22T04:37:59.452Z,0.80
2022-10-22T04:40:26.241Z,0.47
2022-10-22T04:42:52.870Z,0.10
2022-10-22T04:45:19.596Z,0.10
2022-10-22T04:47:46.221Z,0.10
2022-10-22T04:50:13.095Z,0.75
2022-10-22T04:52:39.871Z,0.10
2022-10-22T04:55:06.978Z,0.28
2022-10-22T04:57:33.686Z,0.10
2022-10-22T05:00:00.329Z,0.17
2022-10-22T05:02:27.024Z,0.55
2022-10-22T05:04:53.689Z,0.40
2022-10-22T05:07:20.430Z,0.10
2022-10-22T05:09:47.069Z,0.20
2022-10-22T05:12:13.844Z,0.20
2022-10-22T05:14:43.997Z,0.15
2022-10-22T05:17:11.764Z,0.40
2022-10-22T05:19:38.502Z,0.10
2022-10-22T05:22:05.979Z,0.25
2022-10-22T05:24:34.200Z,0.10
2022-10-22T05:27:01.057Z,0.30
2022-10-22T05:29:28.132Z,0.43
2022-10-22T05:31:55.091Z,0.68
2022-10-22T05:34:21.768Z,0.88
2022-10-22T05:36:48.632Z,0.57
2022-10-22T05:39:15.389Z,0.38
2022-10-22T05:41:42.104Z,0.30
2022-10-22T05:44:11.823Z,0.35
2022-10-22T05:46:38.461Z,0.30
2022-10-22T05:49:06.642Z,0.73
2022-10-22T05:51:35.260Z,0.30
2022-10-22T05:54:04.053Z,0.10
2022-10-22T05:56:32.049Z,0.80
2022-10-22T05:58:59.199Z,0.32
2022-10-22T06:01:28.570Z,0.28
2022-10-22T06:04:03.532Z,0.30
2022-10-22T06:06:39.557Z,0.30
2022-10-22T06:09:27.841Z,0.30
2022-10-22T06:11:55.587Z,0.55
2022-10-22T06:14:22.668Z,0.50
2022-10-22T06:16:50.573Z,0.65
2022-10-22T06:19:19.684Z,0.50
2022-10-22T06:21:47.224Z,0.30
2022-10-22T06:24:14.340Z,0.30
2022-10-22T06:26:41.539Z,0.30
2022-10-22T06:29:08.309Z,0.40
2022-10-22T06:31:38.627Z,0.15
2022-10-22T06:34:11.505Z,0.40
2022-10-22T06:36:38.682Z,0.40
2022-10-22T06:39:05.847Z,0.30
2022-10-22T06:41:32.627Z,0.45
2022-10-22T06:43:59.943Z,0.40
2022-10-22T06:46:27.036Z,0.82
2022-10-22T06:48:57.514Z,0.68
2022-10-22T06:51:24.940Z,0.52
2022-10-22T06:53:51.729Z,0.30
2022-10-22T06:56:20.719Z,0.30
2022-10-22T06:58:51.794Z,0.40
2022-10-22T07:01:21.047Z,0.15
2022-10-22T07:03:49.687Z,0.35
2022-10-22T07:06:16.752Z,0.20
2022-10-22T07:08:43.637Z,0.22
2022-10-22T07:11:16.200Z,0.57
2022-10-22T07:13:43.490Z,0.35
2022-10-22T07:16:10.640Z,0.25
2022-10-22T07:18:38.440Z,0.47
2022-10-22T07:21:05.830Z,0.40
2022-10-22T07:23:32.559Z,0.20
2022-10-22T07:25:59.372Z,0.38
2022-10-22T07:28:26.156Z,0.40
2022-10-22T07:30:52.971Z,0.50
2022-10-22T07:33:19.784Z,0.35
2022-10-22T07:35:46.487Z,0.82
2022-10-22T07:38:13.097Z,0.40
2022-10-22T07:40:39.775Z,0.50
2022-10-22T07:43:06.544Z,0.40
2022-10-22T07:45:33.820Z,0.50
2022-10-22T07:48:00.807Z,0.28
2022-10-22T07:50:27.571Z,0.32
2022-10-22T07:52:56.135Z,0.50
2022-10-22T07:55:25.105Z,0.52
2022-10-22T07:57:51.798Z,0.30
2022-10-22T08:00:20.582Z,0.52
2022-10-22T08:02:49.850Z,0.85
2022-10-22T08:05:16.646Z,0.35
2022-10-22T08:07:43.649Z,0.40
2022-10-22T08:10:11.321Z,0.47
2022-10-22T08:12:38.660Z,0.45
2022-10-22T08:15:06.607Z,0.35
2022-10-22T08:17:33.361Z,0.60
2022-10-22T08:20:00.015Z,0.85
2022-10-22T08:22:26.702Z,0.60
2022-10-22T08:24:53.511Z,0.40
2022-10-22T08:27:20.169Z,0.30
2022-10-22T08:29:46.957Z,0.38
2022-10-22T08:32:13.830Z,0.30
2022-10-22T08:34:40.601Z,0.30
2022-10-22T08:37:08.527Z,0.30
2022-10-22T08:39:35.649Z,0.50
2022-10-22T08:42:32.121Z,0.32
2022-10-22T08:45:15.566Z,0.60
2022-10-22T08:47:59.211Z,0.30
2022-10-22T08:50:35.992Z,0.30
2022-10-22T08:53:15.673Z,0.32
2022-10-22T08:55:42.653Z,0.40
2022-10-22T08:58:43.334Z,0.30
2022-10-22T09:01:14.134Z,1.20
2022-10-22T09:03:45.455Z,2.45
2022-10-22T09:06:18.283Z,1.83
2022-10-22T09:08:46.627Z,0.75
2022-10-22T09:11:13.272Z,0.47
2022-10-22T09:13:41.783Z,1.90
2022-10-22T09:16:31.836Z,0.60
2022-10-22T09:19:22.841Z,1.05
2022-10-22T09:22:05.627Z,0.45
2022-10-22T09:24:38.129Z,0.50
2022-10-22T09:27:17.315Z,0.60
2022-10-22T09:29:45.067Z,1.00
2022-10-22T09:32:11.864Z,0.50
2022-10-22T09:34:38.790Z,0.75
2022-10-22T09:37:08.593Z,0.80
2022-10-22T09:39:39.473Z,0.70
2022-10-22T09:42:07.897Z,1.05
2022-10-22T09:44:37.262Z,1.60
2022-10-22T09:47:11.984Z,0.90
2022-10-22T09:49:38.632Z,1.23
2022-10-22T09:52:24.358Z,1.25
2022-10-22T09:54:52.733Z,0.70
2022-10-22T09:57:22.884Z,0.85
2022-10-22T09:59:51.423Z,0.80
2022-10-22T10:02:37.536Z,0.98
2022-10-22T10:05:06.211Z,0.68
2022-10-22T10:07:34.779Z,1.08
2022-10-22T10:10:01.770Z,0.77
2022-10-22T10:12:54.085Z,0.82
2022-10-22T10:15:24.836Z,0.85
2022-10-22T10:18:20.997Z,1.30
2022-10-22T10:20:47.583Z,1.13
2022-10-22T10:23:36.409Z,1.30
2022-10-22T10:26:15.974Z,1.30
2022-10-22T10:29:21.718Z,1.98
2022-10-22T10:32:19.895Z,1.00
2022-10-22T10:35:07.867Z,0.98
2022-10-22T10:37:41.151Z,0.65
2022-10-22T10:41:03.490Z,0.90
2022-10-22T10:43:49.606Z,0.85
2022-10-22T10:46:36.977Z,0.98
2022-10-22T10:49:10.585Z,1.10
2022-10-22T10:52:08.431Z,0.75
2022-10-22T10:55:01.408Z,3.28
2022-10-22T10:57:40.891Z,1.35
2022-10-22T11:00:15.985Z,1.10
2022-10-22T11:02:58.553Z,0.63
2022-10-22T11:05:29.352Z,0.68
2022-10-22T11:08:03.524Z,0.80
2022-10-22T11:10:49.050Z,0.80
2022-10-22T11:13:35.802Z,0.60
2022-10-22T11:16:25.613Z,0.57
2022-10-22T11:19:03.409Z,0.60
2022-10-22T11:21:42.004Z,0.63
2022-10-22T11:24:35.683Z,0.50
2022-10-22T11:27:04.085Z,0.47
2022-10-22T11:29:39.081Z,0.70
2022-10-22T11:32:08.580Z,0.80
2022-10-22T11:34:41.690Z,0.70
2022-10-22T11:37:10.969Z,0.73
2022-10-22T11:39:59.759Z,1.05
2022-10-22T11:42:39.419Z,0.65
2022-10-22T11:45:15.179Z,0.80
2022-10-22T11:47:52.513Z,0.90
2022-10-22T11:50:22.920Z,0.70
2022-10-22T11:53:05.668Z,0.60
2022-10-22T11:55:45.681Z,0.80
2022-10-22T11:58:42.064Z,0.60
2022-10-22T12:01:09.085Z,0.47
2022-10-22T12:03:50.589Z,0.70
2022-10-22T12:06:20.812Z,0.80
2022-10-22T12:08:53.323Z,1.20
2022-10-22T12:11:21.159Z,0.60
2022-10-22T12:14:15.662Z,0.60
2022-10-22T12:16:55.588Z,0.50
2022-10-22T12:19:23.675Z,0.60
2022-10-22T12:22:10.086Z,0.80
2022-10-22T12:24:42.110Z,0.50
2022-10-22T12:27:27.037Z,0.70
2022-10-22T12:32:21.524Z,0.90
2022-10-22T12:37:21.534Z,0.63
2022-10-22T12:39:48.235Z,0.50
2022-10-22T12:42:17.282Z,0.57
2022-10-22T12:44:45.132Z,0.38
2022-10-22T12:47:18.545Z,0.52
2022-10-22T12:49:49.763Z,1.05
2022-10-22T12:52:20.602Z,0.50
2022-10-22T12:54:52.308Z,0.47
2022-10-22T12:57:20.044Z,0.60
2022-10-22T12:59:50.058Z,0.68
2022-10-22T13:02:21.634Z,0.63
2022-10-22T13:05:27.091Z,0.70
2022-10-22T13:08:04.765Z,0.70
2022-10-22T13:10:40.500Z,0.47
2022-10-22T13:13:07.309Z,0.55
2022-10-22T13:15:39.038Z,0.70
2022-10-22T13:18:23.804Z,0.70
2022-10-22T13:20:57.668Z,0.68
2022-10-22T13:23:26.446Z,0.75
2022-10-22T13:26:04.929Z,0.52
2022-10-22T13:28:32.169Z,0.70
2022-10-22T13:31:09.509Z,0.80
2022-10-22T13:33:38.452Z,0.70
2022-10-22T13:36:05.799Z,0.50
2022-10-22T13:38:32.514Z,0.90
2022-10-22T13:40:59.430Z,0.60
2022-10-22T13:43:26.435Z,0.95
2022-10-22T13:45:55.231Z,1.45
2022-10-22T13:48:23.091Z,0.80
2022-10-22T13:50:50.799Z,0.63
2022-10-22T13:53:27.974Z,0.60
2022-10-22T13:55:54.638Z,0.70
2022-10-22T13:58:26.776Z,1.15
2022-10-22T14:00:59.199Z,0.60
2022-10-22T14:03:32.446Z,0.80
2022-10-22T14:05:59.181Z,0.90
2022-10-22T14:08:26.634Z,1.00
2022-10-22T14:10:53.995Z,0.60
2022-10-22T14:13:21.353Z,0.63
2022-10-22T14:15:50.535Z,0.60
2022-10-22T14:18:26.356Z,0.75
2022-10-22T14:21:13.229Z,0.80
2022-10-22T14:23:41.370Z,0.65
2022-10-22T14:26:08.811Z,0.47
2022-10-22T14:28:41.256Z,0.63
2022-10-22T14:31:13.331Z,0.70
2022-10-22T14:33:40.603Z,0.52
2022-10-22T14:36:07.452Z,0.80
2022-10-22T14:38:34.072Z,0.40
2022-10-22T14:41:00.736Z,0.90
2022-10-22T14:43:29.238Z,1.00
2022-10-22T14:45:56.386Z,1.13
2022-10-22T14:48:23.375Z,0.60
2022-10-22T14:50:50.198Z,0.70
2022-10-22T14:53:17.211Z,0.70
2022-10-22T14:55:47.024Z,0.85
2022-10-22T14:58:13.829Z,0.90
2022-10-22T15:00:43.780Z,0.60
2022-10-22T15:03:11.470Z,1.10
2022-10-22T15:05:45.165Z,1.13
2022-10-22T15:08:13.065Z,0.93
2022-10-22T15:10:40.169Z,0.90
2022-10-22T15:13:07.406Z,0.70
2022-10-22T15:15:39.266Z,0.93
2022-10-22T15:18:06.807Z,0.70
2022-10-22T15:20:33.553Z,0.60
2022-10-22T15:23:00.461Z,0.65
2022-10-22T15:25:28.659Z,0.70
2022-10-22T15:27:59.659Z,0.82
2022-10-22T15:30:31.749Z,0.88
2022-10-22T15:32:58.481Z,0.60
2022-10-22T15:35:28.485Z,0.80
2022-10-22T15:37:55.156Z,0.52
2022-10-22T15:40:21.895Z,0.80
2022-10-22T15:42:48.594Z,0.88
2022-10-22T15:45:15.728Z,0.77
2022-10-22T15:47:47.444Z,0.80
2022-10-22T15:50:14.804Z,1.15
2022-10-22T15:52:41.457Z,1.63
2022-10-22T15:55:10.482Z,1.00
2022-10-22T15:57:38.436Z,0.70
2022-10-22T16:00:08.309Z,1.30
2022-10-22T16:02:35.020Z,1.83
2022-10-22T16:05:01.832Z,0.93
2022-10-22T16:07:29.988Z,1.05
2022-10-22T16:09:58.101Z,0.90
2022-10-22T16:12:25.054Z,1.10
2022-10-22T16:14:51.932Z,1.35
2022-10-22T16:17:19.561Z,1.00
2022-10-22T16:19:47.799Z,0.80
2022-10-22T16:22:15.609Z,0.80
2022-10-22T16:24:43.154Z,1.00
2022-10-22T16:27:10.650Z,0.80
2022-10-22T16:29:38.988Z,1.00
2022-10-22T16:32:05.935Z,1.30
2022-10-22T16:34:32.614Z,0.98
2022-10-22T16:36:59.272Z,1.67
2022-10-22T16:39:26.009Z,1.00
2022-10-22T16:41:52.694Z,1.00
2022-10-22T16:44:19.716Z,1.27
2022-10-22T16:46:46.420Z,1.98
2022-10-22T16:49:13.147Z,1.10
2022-10-22T16:51:40.228Z,1.00
2022-10-22T16:54:11.509Z,0.98
2022-10-22T16:56:39.960Z,1.13
2022-10-22T16:59:07.651Z,0.95
2022-10-22T17:01:39.492Z,1.10
2022-10-22T17:04:07.573Z,1.20
2022-10-22T17:06:34.311Z,1.27
2022-10-22T17:09:01.171Z,1.05
2022-10-22T17:11:30.189Z,0.90
2022-10-22T17:13:57.186Z,1.00
2022-10-22T17:16:25.909Z,1.10
2022-10-22T17:18:54.141Z,1.00
2022-10-22T17:21:22.616Z,1.10
2022-10-22T17:23:53.455Z,1.00
2022-10-22T17:26:22.604Z,1.10
2022-10-22T17:28:49.944Z,1.45
2022-10-22T17:31:19.049Z,1.00
2022-10-22T17:33:46.376Z,0.98
2022-10-22T17:36:13.766Z,1.10
2022-10-22T17:38:42.674Z,1.65
2022-10-22T17:41:14.521Z,1.27
2022-10-22T17:46:21.589Z,0.85
2022-10-22T17:48:56.361Z,1.15
2022-10-22T17:51:23.835Z,1.40
2022-10-22T17:53:50.711Z,1.10
2022-10-22T17:56:22.765Z,0.88
2022-10-22T17:58:50.941Z,0.82
2022-10-22T18:01:26.763Z,1.20
2022-10-22T18:03:56.485Z,1.00
2022-10-22T18:06:23.568Z,1.00
2022-10-22T18:08:50.769Z,1.05
2022-10-22T18:11:21.422Z,1.13
2022-10-22T18:13:53.287Z,1.05
2022-10-22T18:16:21.181Z,1.23
2022-10-22T18:18:50.061Z,0.95
2022-10-22T18:21:18.181Z,1.15
2022-10-22T18:23:46.327Z,1.10
2022-10-22T18:26:21.588Z,1.00
2022-10-22T18:28:52.659Z,1.13
2022-10-22T18:31:21.793Z,1.05
2022-10-22T18:33:48.718Z,1.02
2022-10-22T18:36:19.204Z,0.88
2022-10-22T18:39:04.557Z,0.93
2022-10-22T18:41:32.027Z,1.02
2022-10-22T18:44:01.360Z,1.13
2022-10-22T18:46:29.802Z,1.23
2022-10-22T18:48:57.927Z,1.10
2022-10-22T18:51:26.141Z,0.93
2022-10-22T18:54:05.997Z,0.80
2022-10-22T18:56:43.549Z,0.90
2022-10-22T18:59:22.342Z,1.02
2022-10-22T19:01:51.188Z,0.90
2022-10-22T19:04:18.142Z,0.90
2022-10-22T19:06:46.043Z,0.95
2022-10-22T19:09:17.705Z,1.23
2022-10-22T19:11:45.244Z,1.00
2022-10-22T19:14:13.601Z,0.90
2022-10-22T19:16:40.300Z,1.10
2022-10-22T19:19:07.535Z,1.00
2022-10-22T19:21:34.331Z,1.27
2022-10-22T19:24:02.213Z,1.20
2022-10-22T19:26:31.124Z,1.13
2022-10-22T19:28:58.713Z,0.93
2022-10-22T19:31:26.471Z,0.98
2022-10-22T19:33:56.335Z,0.90
2022-10-22T19:36:25.173Z,1.30
2022-10-22T19:38:52.353Z,0.95
2022-10-22T19:41:20.770Z,1.15
2022-10-22T19:43:52.242Z,1.10
2022-10-22T19:46:19.469Z,1.20
2022-10-22T19:48:46.598Z,1.10
2022-10-22T19:51:19.108Z,1.65
2022-10-22T19:53:46.533Z,0.75
2022-10-22T19:56:20.165Z,0.93
2022-10-22T19:58:46.963Z,1.27
2022-10-22T20:01:16.545Z,1.00
2022-10-22T20:03:43.372Z,1.15
2022-10-22T20:06:11.221Z,0.90
2022-10-22T20:08:38.865Z,1.10
2022-10-22T20:11:08.209Z,1.20
2022-10-22T20:13:35.561Z,1.13
2022-10-22T20:16:02.606Z,1.35
2022-10-22T20:18:29.507Z,0.95
2022-10-22T20:20:56.255Z,1.20
2022-10-22T20:23:22.935Z,0.90
2022-10-22T20:25:50.990Z,1.23
2022-10-22T20:28:17.649Z,1.10
2022-10-22T20:30:45.472Z,0.80
2022-10-22T20:33:12.449Z,1.27
2022-10-22T20:35:39.587Z,1.10
2022-10-22T20:38:07.624Z,1.00
2022-10-22T20:40:34.611Z,0.85
2022-10-22T20:43:01.835Z,1.52
2022-10-22T20:45:29.157Z,1.25
2022-10-22T20:48:02.056Z,1.40
2022-10-22T20:50:31.248Z,1.20
2022-10-22T20:52:58.203Z,1.00
2022-10-22T20:55:24.932Z,1.40
2022-10-22T20:57:51.725Z,1.10
2022-10-22T21:00:18.437Z,1.23
2022-10-22T21:02:45.109Z,1.50
2022-10-22T21:05:11.756Z,1.02
2022-10-22T21:07:38.519Z,1.00
2022-10-22T21:10:05.855Z,1.40
2022-10-22T21:12:32.916Z,1.10
2022-10-22T21:14:59.569Z,1.40
2022-10-22T21:17:26.237Z,1.13
2022-10-22T21:19:53.091Z,1.25
2022-10-22T21:22:19.861Z,1.30
2022-10-22T21:24:46.561Z,1.35
2022-10-22T21:27:13.347Z,1.42
2022-10-22T21:29:40.288Z,1.35
2022-10-22T21:32:07.002Z,1.30
2022-10-22T21:34:38.133Z,1.67
2022-10-22T21:37:05.951Z,1.30
2022-10-22T21:39:32.719Z,1.60
2022-10-22T21:41:59.698Z,1.50
2022-10-22T21:44:26.473Z,1.42
2022-10-22T21:46:53.147Z,1.27
2022-10-22T21:49:19.811Z,1.58
2022-10-22T21:51:46.765Z,1.27
2022-10-22T21:54:13.415Z,1.23
2022-10-22T21:56:41.261Z,1.45
2022-10-22T21:59:08.003Z,1.52
2022-10-22T22:01:35.562Z,1.30
2022-10-22T22:04:02.921Z,1.30
2022-10-22T22:06:33.412Z,1.50
2022-10-22T22:09:01.497Z,1.50
2022-10-22T22:11:29.148Z,0.80
2022-10-22T22:13:57.452Z,1.30
2022-10-22T22:16:30.118Z,1.00
2022-10-22T22:18:58.928Z,1.17
2022-10-22T22:21:26.170Z,1.13
2022-10-22T22:23:53.030Z,1.40
2022-10-22T22:26:25.424Z,1.30
2022-10-22T22:28:56.074Z,1.30
2022-10-22T22:31:28.495Z,1.35
2022-10-22T22:34:00.271Z,1.20
2022-10-22T22:36:27.539Z,1.27
2022-10-22T22:38:56.065Z,1.40
2022-10-22T22:41:23.069Z,1.10
2022-10-22T22:43:49.845Z,1.00
2022-10-22T22:46:16.688Z,1.30
2022-10-22T22:48:43.745Z,1.08
2022-10-22T22:51:10.552Z,0.82
2022-10-22T22:53:37.217Z,0.90
2022-10-22T22:56:04.945Z,0.90
2022-10-22T22:58:31.664Z,1.13
2022-10-22T23:01:16.334Z,1.38
2022-10-22T23:03:44.249Z,1.10
2022-10-22T23:06:12.048Z,1.20
2022-10-22T23:08:39.098Z,1.35
2022-10-22T23:11:08.082Z,1.33
2022-10-22T23:13:35.583Z,1.30
2022-10-22T23:16:29.715Z,1.25
2022-10-22T23:18:57.300Z,1.15
2022-10-22T23:21:29.858Z,1.13
2022-10-22T23:23:59.394Z,1.50
2022-10-22T23:26:37.747Z,1.13
2022-10-22T23:29:17.157Z,1.15
2022-10-22T23:31:44.758Z,1.13
2022-10-22T23:34:14.016Z,1.10
2022-10-22T23:36:40.858Z,1.00
2022-10-22T23:39:10.502Z,1.13
2022-10-22T23:41:37.245Z,1.00
2022-10-22T23:44:05.388Z,1.10
2022-10-22T23:46:33.493Z,1.00
2022-10-22T23:49:01.093Z,1.15
2022-10-22T23:51:28.182Z,1.20
2022-10-22T23:53:59.974Z,0.98
2022-10-22T23:56:27.749Z,1.20
2022-10-22T23:58:55.195Z,1.10
